Flicksville, Pennsylvania
Current Conditions -  °F | °C
As of 10:51 AM on Thursday 27 Nov 2014 (Local Time) from KABE Reporting Station
Overcast Overcast  
Wind Chill: 29°   Ceiling: 4100
Heat Index: 35°   Visibility: 10mi
Dew Point: 26°   Wind: 8mph
Humidity: 70%   Direction: 310°NW
Pressure: 30.02"   Gusts: NA
Location:  40.84°N, 75.2°W
Report Text: KABE 271551Z 31007KT 10SM FEW018 BKN041 OVC050 02/M03 A3002 RMK AO2 SLP169 T00171033 $
Loading
Personal Weather Stations






























Interactive Weather Map New forecast layout! Learn more

10-Day Weather Forecast

Advertisements
Track Severe Weather on mobile